createdAt,value
2019-02-18T00:00:43.671Z,96234.05
2019-02-18T00:03:13.209Z,96239.88
2019-02-18T00:05:42.833Z,96230.52
2019-02-18T00:08:12.197Z,96230.52
2019-02-18T00:10:41.593Z,96228.59
2019-02-18T00:13:10.939Z,96234.67
2019-02-18T00:15:40.320Z,96236.47
2019-02-18T00:18:09.678Z,96240.45
2019-02-18T00:20:39.067Z,96240.45
2019-02-18T00:23:08.533Z,96245.75
2019-02-18T00:25:37.883Z,96240.83
2019-02-18T00:28:07.245Z,96241.58
2019-02-18T00:30:36.600Z,96246.07
2019-02-18T00:33:05.934Z,96237.53
2019-02-18T00:35:35.285Z,96232.86
2019-02-18T00:38:04.635Z,96229.08
2019-02-18T00:40:33.984Z,96229.28
2019-02-18T00:43:03.330Z,96231.40
2019-02-18T00:45:32.670Z,96226.85
2019-02-18T00:48:02.024Z,96219.13
2019-02-18T00:50:31.362Z,96219.13
2019-02-18T00:53:00.681Z,96213.23
2019-02-18T00:55:30.068Z,96212.95
2019-02-18T00:57:59.390Z,96218.83
2019-02-18T01:00:28.739Z,96221.23
2019-02-18T01:02:58.151Z,96217.96
2019-02-18T01:05:27.524Z,96209.92
2019-02-18T01:07:56.910Z,96202.58
2019-02-18T01:10:26.209Z,96200.66
2019-02-18T01:12:55.536Z,96199.88
2019-02-18T01:15:24.897Z,96200.31
2019-02-18T01:17:54.248Z,96187.57
2019-02-18T01:20:23.594Z,96194.94
2019-02-18T01:22:52.958Z,96202.03
2019-02-18T01:25:22.287Z,96191.50
2019-02-18T01:27:51.617Z,96189.58
2019-02-18T01:30:20.960Z,96186.42
2019-02-18T01:32:50.386Z,96190.17
2019-02-18T01:35:19.701Z,96188.43
2019-02-18T01:37:49.029Z,96185.19
2019-02-18T01:40:18.359Z,96183.48
2019-02-18T01:42:47.677Z,96184.57
2019-02-18T01:45:16.999Z,96181.61
2019-02-18T01:47:46.330Z,96181.41
2019-02-18T01:50:16.020Z,96177.49
2019-02-18T01:52:45.363Z,96173.95
2019-02-18T01:55:14.743Z,96176.66
2019-02-18T01:57:44.074Z,96176.92
2019-02-18T02:00:15.276Z,96176.89
2019-02-18T02:02:44.713Z,96174.29
2019-02-18T02:05:15.882Z,96177.84
2019-02-18T02:07:55.399Z,96165.05
2019-02-18T02:10:16.639Z,96164.16
2019-02-18T02:12:45.958Z,96171.19
2019-02-18T02:15:18.561Z,96167.76
2019-02-18T02:17:47.880Z,96158.42
2019-02-18T02:20:17.173Z,96161.80
2019-02-18T02:22:46.497Z,96162.05
2019-02-18T02:25:15.899Z,96159.77
2019-02-18T02:27:45.332Z,96159.22
2019-02-18T02:30:14.773Z,96158.82
2019-02-18T02:32:44.153Z,96160.63
2019-02-18T02:35:13.543Z,96162.27
2019-02-18T02:37:42.934Z,96158.33
2019-02-18T02:40:12.278Z,96161.69
2019-02-18T02:42:41.596Z,96159.02
2019-02-18T02:45:10.888Z,96162.95
2019-02-18T02:47:40.214Z,96167.71
2019-02-18T02:50:09.881Z,96165.11
2019-02-18T02:52:39.244Z,96169.41
2019-02-18T02:55:08.576Z,96161.91
2019-02-18T02:57:37.927Z,96163.18
2019-02-18T03:00:09.118Z,96152.79
2019-02-18T03:02:38.449Z,96155.41
2019-02-18T03:05:08.019Z,96156.94
2019-02-18T03:07:37.334Z,96158.09
2019-02-18T03:10:06.789Z,96156.74
2019-02-18T03:12:36.098Z,96162.89
2019-02-18T03:15:06.074Z,96157.88
2019-02-18T03:17:35.400Z,96164.48
2019-02-18T03:20:05.338Z,96175.84
2019-02-18T03:22:34.682Z,96167.20
2019-02-18T03:25:20.871Z,96173.65
2019-02-18T03:27:52.452Z,96172.16
2019-02-18T03:30:52.176Z,96174.69
2019-02-18T03:33:31.507Z,96170.31
2019-02-18T03:36:00.954Z,96167.73
2019-02-18T03:38:31.922Z,96161.90
2019-02-18T03:41:03.369Z,96171.92
2019-02-18T03:43:32.813Z,96167.91
2019-02-18T03:46:02.171Z,96169.05
2019-02-18T03:48:31.612Z,96178.05
2019-02-18T03:51:00.945Z,96166.89
2019-02-18T03:53:30.288Z,96171.86
2019-02-18T03:55:59.747Z,96170.72
2019-02-18T03:58:29.114Z,96176.95
2019-02-18T04:00:58.470Z,96171.31
2019-02-18T04:03:27.809Z,96169.22
2019-02-18T04:05:57.177Z,96167.73
2019-02-18T04:08:26.550Z,96162.44
2019-02-18T04:10:55.919Z,96162.98
2019-02-18T04:13:25.293Z,96163.53
2019-02-18T04:15:54.631Z,96167.00
2019-02-18T04:18:23.973Z,96154.84
2019-02-18T04:20:53.321Z,96162.50
2019-02-18T04:23:22.689Z,96157.52
2019-02-18T04:25:52.010Z,96163.58
2019-02-18T04:28:21.352Z,96173.32
2019-02-18T04:30:50.732Z,96171.77
2019-02-18T04:33:20.020Z,96167.46
2019-02-18T04:35:49.381Z,96165.46
2019-02-18T04:38:18.801Z,96168.11
2019-02-18T04:40:48.573Z,96178.70
2019-02-18T04:43:17.939Z,96179.01
2019-02-18T04:45:47.295Z,96180.56
2019-02-18T04:48:16.715Z,96179.23
2019-02-18T04:50:46.050Z,96182.33
2019-02-18T04:53:15.392Z,96183.27
2019-02-18T04:55:44.737Z,96188.24
2019-02-18T04:58:14.149Z,96186.36
2019-02-18T05:00:43.477Z,96189.86
2019-02-18T05:03:12.789Z,96186.41
2019-02-18T05:05:42.231Z,96192.86
2019-02-18T05:08:11.606Z,96194.07
2019-02-18T05:10:40.990Z,96195.40
2019-02-18T05:13:10.345Z,96197.68
2019-02-18T05:15:40.527Z,96200.33
2019-02-18T05:18:10.080Z,96196.78
2019-02-18T05:20:39.426Z,96198.84
2019-02-18T05:23:08.804Z,96200.76
2019-02-18T05:25:38.118Z,96205.39
2019-02-18T05:28:07.484Z,96202.27
2019-02-18T05:30:36.845Z,96205.63
2019-02-18T05:33:06.218Z,96203.06
2019-02-18T05:35:35.598Z,96209.28
2019-02-18T05:38:04.920Z,96208.67
2019-02-18T05:40:34.289Z,96208.70
2019-02-18T05:43:03.657Z,96212.87
2019-02-18T05:45:33.023Z,96207.41
2019-02-18T05:48:02.422Z,96215.86
2019-02-18T05:50:31.809Z,96216.41
2019-02-18T05:53:01.140Z,96215.77
2019-02-18T05:55:31.123Z,96219.93
2019-02-18T05:58:00.530Z,96223.38
2019-02-18T06:00:29.872Z,96224.59
2019-02-18T06:02:59.323Z,96224.59
2019-02-18T06:05:28.723Z,96228.98
2019-02-18T06:07:58.164Z,96224.19
2019-02-18T06:10:27.493Z,96230.53
2019-02-18T06:12:56.850Z,96231.97
2019-02-18T06:15:26.148Z,96229.36
2019-02-18T06:17:55.448Z,96227.07
2019-02-18T06:20:24.762Z,96225.52
2019-02-18T06:22:54.158Z,96229.01
2019-02-18T06:25:23.503Z,96227.42
2019-02-18T06:27:52.885Z,96230.32
2019-02-18T06:30:22.262Z,96230.30
2019-02-18T06:32:51.751Z,96232.43
2019-02-18T06:35:21.129Z,96236.52
2019-02-18T06:37:50.489Z,96240.53
2019-02-18T06:40:19.866Z,96233.58
2019-02-18T06:42:49.427Z,96245.30
2019-02-18T06:45:37.696Z,96249.06
2019-02-18T06:48:30.846Z,96241.28
2019-02-18T06:51:00.167Z,96238.30
2019-02-18T06:53:29.572Z,96243.28
2019-02-18T06:55:59.553Z,96249.16
2019-02-18T06:58:57.019Z,96250.81
2019-02-18T07:01:34.294Z,96252.64
2019-02-18T07:04:26.292Z,96246.23
2019-02-18T07:07:10.445Z,96259.06
2019-02-18T07:10:10.758Z,96261.35
2019-02-18T07:12:46.458Z,96260.31
2019-02-18T07:15:16.148Z,96255.80
2019-02-18T07:17:45.490Z,96261.80
2019-02-18T07:20:14.813Z,96261.03
2019-02-18T07:22:44.147Z,96252.01
2019-02-18T07:25:13.808Z,96254.28
2019-02-18T07:27:43.150Z,96256.97
2019-02-18T07:30:14.910Z,96246.00
2019-02-18T07:32:44.423Z,96247.84
2019-02-18T07:35:13.790Z,96250.77
2019-02-18T07:37:43.262Z,96254.16
2019-02-18T07:40:12.713Z,96253.53
2019-02-18T07:42:42.046Z,96247.00
2019-02-18T07:45:11.411Z,96248.11
2019-02-18T07:47:40.775Z,96253.94
2019-02-18T07:50:19.904Z,96249.22
2019-02-18T07:52:41.551Z,96247.30
2019-02-18T07:55:10.926Z,96234.45
2019-02-18T07:57:40.287Z,96242.18
2019-02-18T08:00:11.655Z,96238.41
2019-02-18T08:02:40.987Z,96248.38
2019-02-18T08:05:10.291Z,96240.99
2019-02-18T08:07:39.659Z,96236.30
2019-02-18T08:10:12.400Z,96241.27
2019-02-18T08:12:40.734Z,96237.87
2019-02-18T08:15:11.526Z,96239.43
2019-02-18T08:17:40.909Z,96241.61
2019-02-18T08:20:10.336Z,96239.07
2019-02-18T08:22:39.676Z,96240.34
2019-02-18T08:25:09.570Z,96237.78
2019-02-18T08:27:38.916Z,96233.11
2019-02-18T08:30:09.880Z,96231.71
2019-02-18T08:32:39.327Z,96225.12
2019-02-18T08:35:08.767Z,96223.96
2019-02-18T08:37:38.379Z,96225.61
2019-02-18T08:40:07.946Z,96231.58
2019-02-18T08:42:37.296Z,96225.23
2019-02-18T08:45:08.386Z,96226.73
2019-02-18T08:47:37.750Z,96223.77
2019-02-18T08:50:08.692Z,96223.47
2019-02-18T08:52:38.063Z,96219.59
2019-02-18T08:55:09.113Z,96216.41
2019-02-18T08:57:38.440Z,96220.55
2019-02-18T09:00:10.138Z,96218.25
2019-02-18T09:02:39.495Z,96216.02
2019-02-18T09:05:08.957Z,96219.09
2019-02-18T09:07:38.486Z,96214.41
2019-02-18T09:10:08.486Z,96213.58
2019-02-18T09:12:37.847Z,96214.50
2019-02-18T09:15:07.749Z,96215.01
2019-02-18T09:17:37.111Z,96221.44
2019-02-18T09:20:07.188Z,96215.88
2019-02-18T09:22:59.673Z,96214.99
2019-02-18T09:25:33.706Z,96208.48
2019-02-18T09:28:03.096Z,96208.64
2019-02-18T09:30:34.736Z,96203.95
2019-02-18T09:33:04.126Z,96205.75
2019-02-18T09:35:34.063Z,96196.09
2019-02-18T09:38:03.451Z,96192.28
2019-02-18T09:40:43.991Z,96194.64
2019-02-18T09:43:04.072Z,96187.91
2019-02-18T09:45:33.532Z,96188.52
2019-02-18T09:48:03.039Z,96190.92
2019-02-18T09:50:32.678Z,96184.38
2019-02-18T09:53:02.594Z,96187.25
2019-02-18T09:55:32.073Z,96179.59
2019-02-18T09:58:01.419Z,96185.00
2019-02-18T10:00:30.788Z,96175.82
2019-02-18T10:03:00.117Z,96172.70
2019-02-18T10:05:29.485Z,96168.55
2019-02-18T10:07:58.883Z,96165.68
2019-02-18T10:10:28.313Z,96156.16
2019-02-18T10:12:59.591Z,96146.91
2019-02-18T10:15:28.730Z,96151.57
2019-02-18T10:17:58.084Z,96144.89
2019-02-18T10:20:27.461Z,96142.59
2019-02-18T10:22:56.817Z,96145.72
2019-02-18T10:25:26.241Z,96138.10
2019-02-18T10:27:55.591Z,96130.41
2019-02-18T10:30:24.940Z,96129.16
2019-02-18T10:32:54.288Z,96121.20
2019-02-18T10:35:26.366Z,96123.53
2019-02-18T10:37:55.514Z,96121.05
2019-02-18T10:40:24.918Z,96117.65
2019-02-18T10:42:54.335Z,96118.76
2019-02-18T10:45:23.682Z,96111.59
2019-02-18T10:47:53.061Z,96101.55
2019-02-18T10:50:22.461Z,96102.22
2019-02-18T10:52:51.808Z,96098.53
2019-02-18T10:55:21.333Z,96089.84
2019-02-18T10:57:50.722Z,96088.34
2019-02-18T11:00:20.111Z,96078.64
2019-02-18T11:02:49.533Z,96077.25
2019-02-18T11:05:18.858Z,96074.56
2019-02-18T11:07:48.237Z,96063.91
2019-02-18T11:10:17.751Z,96068.65
2019-02-18T11:12:47.743Z,96055.55
2019-02-18T11:15:17.203Z,96055.97
2019-02-18T11:17:46.949Z,96059.60
2019-02-18T11:20:16.331Z,96045.31
2019-02-18T11:22:45.694Z,96042.66
2019-02-18T11:25:15.131Z,96041.78
2019-02-18T11:27:44.489Z,96039.88
2019-02-18T11:30:14.983Z,96035.68
2019-02-18T11:32:44.345Z,96028.66
2019-02-18T11:35:13.815Z,96026.47
2019-02-18T11:37:43.166Z,96025.59
2019-02-18T11:40:13.902Z,96022.20
2019-02-18T11:42:43.265Z,96013.09
2019-02-18T11:45:13.915Z,96010.00
2019-02-18T11:47:43.292Z,96013.83
2019-02-18T11:50:14.464Z,96012.41
2019-02-18T11:52:43.958Z,96005.20
2019-02-18T11:55:13.325Z,96003.70
2019-02-18T11:57:43.140Z,95995.83
2019-02-18T12:00:12.822Z,95992.39
2019-02-18T12:02:42.213Z,95992.86
2019-02-18T12:05:11.860Z,95976.51
2019-02-18T12:07:41.297Z,95978.64
2019-02-18T12:10:11.035Z,95984.17
2019-02-18T12:12:40.851Z,95968.42
2019-02-18T12:15:10.967Z,95968.64
2019-02-18T12:17:40.472Z,95964.25
2019-02-18T12:20:11.945Z,95963.98
2019-02-18T12:22:41.397Z,95960.17
2019-02-18T12:25:11.152Z,95954.88
2019-02-18T12:27:40.915Z,95955.14
2019-02-18T12:30:11.514Z,95946.42
2019-02-18T12:32:40.841Z,95944.26
2019-02-18T12:35:10.413Z,95948.41
2019-02-18T12:37:39.851Z,95944.91
2019-02-18T12:40:09.599Z,95940.70
2019-02-18T12:42:39.234Z,95934.64
2019-02-18T12:45:09.235Z,95929.64
2019-02-18T12:47:38.696Z,95927.09
2019-02-18T12:50:08.540Z,95928.36
2019-02-18T12:52:37.899Z,95929.03
2019-02-18T12:55:07.732Z,95922.50
2019-02-18T12:57:37.397Z,95922.81
2019-02-18T13:00:07.647Z,95921.81
2019-02-18T13:02:44.161Z,95928.07
2019-02-18T13:05:08.996Z,95925.33
2019-02-18T13:07:38.332Z,95922.09
2019-02-18T13:10:07.796Z,95917.59
2019-02-18T13:12:37.171Z,95914.95
2019-02-18T13:15:08.226Z,95911.83
2019-02-18T13:17:37.599Z,95911.89
2019-02-18T13:20:07.506Z,95914.55
2019-02-18T13:22:36.848Z,95910.31
2019-02-18T13:25:06.575Z,95910.23
2019-02-18T13:27:35.930Z,95903.06
2019-02-18T13:30:09.538Z,95908.07
2019-02-18T13:32:38.980Z,95908.16
2019-02-18T13:35:08.376Z,95906.84
2019-02-18T13:37:37.840Z,95900.77
2019-02-18T13:40:07.579Z,95899.69
2019-02-18T13:42:36.935Z,95901.13
2019-02-18T13:45:06.754Z,95896.45
2019-02-18T13:47:36.178Z,95894.29
2019-02-18T13:50:06.212Z,95885.34
2019-02-18T13:52:35.561Z,95890.00
2019-02-18T13:55:05.325Z,95892.87
2019-02-18T13:57:34.686Z,95889.78
2019-02-18T14:00:04.440Z,95886.23
2019-02-18T14:02:33.788Z,95888.42
2019-02-18T14:05:03.139Z,95886.56
2019-02-18T14:07:32.510Z,95887.63
2019-02-18T14:10:01.894Z,95881.52
2019-02-18T14:12:31.398Z,95875.64
2019-02-18T14:15:01.198Z,95874.88
2019-02-18T14:17:30.557Z,95875.34
2019-02-18T14:20:00.037Z,95868.97
2019-02-18T14:22:29.369Z,95875.41
2019-02-18T14:24:58.725Z,95873.08
2019-02-18T14:27:28.075Z,95870.89
2019-02-18T14:29:57.413Z,95869.57
2019-02-18T14:32:26.799Z,95872.59
2019-02-18T14:34:56.135Z,95871.16
2019-02-18T14:37:25.579Z,95873.91
2019-02-18T14:39:54.942Z,95873.42
2019-02-18T14:42:24.873Z,95869.70
2019-02-18T14:44:54.218Z,95870.22
2019-02-18T14:47:24.603Z,95868.00
2019-02-18T14:49:54.184Z,95866.00
2019-02-18T14:52:23.888Z,95871.57
2019-02-18T14:54:53.263Z,95870.74
2019-02-18T14:57:22.744Z,95870.63
2019-02-18T14:59:52.083Z,95874.00
2019-02-18T15:02:21.455Z,95875.38
2019-02-18T15:04:50.806Z,95871.31
2019-02-18T15:07:20.158Z,95866.48
2019-02-18T15:09:49.486Z,95873.45
2019-02-18T15:12:20.171Z,95871.48
2019-02-18T15:14:49.595Z,95867.21
2019-02-18T15:17:18.915Z,95871.88
2019-02-18T15:19:48.257Z,95870.55
2019-02-18T15:22:17.590Z,95870.78
2019-02-18T15:24:46.982Z,95867.05
2019-02-18T15:27:16.673Z,95865.70
2019-02-18T15:29:46.024Z,95865.95
2019-02-18T15:32:15.376Z,95860.97
2019-02-18T15:34:44.719Z,95861.76
2019-02-18T15:37:14.397Z,95856.80
2019-02-18T15:39:43.736Z,95865.97
2019-02-18T15:42:13.282Z,95860.73
2019-02-18T15:44:42.655Z,95862.33
2019-02-18T15:47:12.016Z,95861.42
2019-02-18T15:49:41.369Z,95868.98
2019-02-18T15:52:10.709Z,95865.23
2019-02-18T15:54:40.109Z,95862.75
2019-02-18T15:57:09.435Z,95872.66
2019-02-18T15:59:38.895Z,95875.14
2019-02-18T16:02:09.868Z,95879.17
2019-02-18T16:04:39.191Z,95879.41
2019-02-18T16:07:08.531Z,95877.91
2019-02-18T16:09:37.877Z,95874.86
2019-02-18T16:12:07.612Z,95879.77
2019-02-18T16:14:36.974Z,95880.08
2019-02-18T16:17:06.347Z,95882.74
2019-02-18T16:19:35.730Z,95882.00
2019-02-18T16:22:05.122Z,95877.13
2019-02-18T16:24:34.511Z,95878.31
2019-02-18T16:27:03.838Z,95878.05
2019-02-18T16:29:34.712Z,95882.45
2019-02-18T16:32:04.058Z,95878.39
2019-02-18T16:34:33.379Z,95885.10
2019-02-18T16:37:03.127Z,95883.75
2019-02-18T16:39:32.490Z,95888.98
2019-02-18T16:42:02.260Z,95898.09
2019-02-18T16:44:31.752Z,95891.48
2019-02-18T16:47:01.128Z,95896.20
2019-02-18T16:49:32.722Z,95892.72
2019-02-18T16:52:02.091Z,95897.53
2019-02-18T16:54:31.440Z,95898.84
2019-02-18T16:57:00.778Z,95905.32
2019-02-18T16:59:30.141Z,95908.92
2019-02-18T17:01:59.452Z,95908.97
2019-02-18T17:04:28.834Z,95907.70
2019-02-18T17:06:58.100Z,95912.81
2019-02-18T17:09:27.505Z,95921.72
2019-02-18T17:11:56.864Z,95919.59
2019-02-18T17:14:26.223Z,95916.20
2019-02-18T17:16:55.589Z,95920.91
2019-02-18T17:19:24.945Z,95920.81
2019-02-18T17:21:54.321Z,95923.36
2019-02-18T17:24:23.844Z,95922.42
2019-02-18T17:26:53.273Z,95923.93
2019-02-18T17:29:22.641Z,95931.92
2019-02-18T17:31:52.035Z,95931.27
2019-02-18T17:34:21.409Z,95929.02
2019-02-18T17:36:50.803Z,95932.10
2019-02-18T17:39:20.528Z,95938.39
2019-02-18T17:41:49.907Z,95932.88
2019-02-18T17:44:20.419Z,95947.78
2019-02-18T17:46:50.008Z,95934.44
2019-02-18T17:49:19.440Z,95945.03
2019-02-18T17:51:48.880Z,95937.61
2019-02-18T17:54:18.326Z,95942.84
2019-02-18T17:56:47.672Z,95943.66
2019-02-18T17:59:17.105Z,95945.39
2019-02-18T18:01:46.473Z,95953.42
2019-02-18T18:04:16.150Z,95962.35
2019-02-18T18:06:45.528Z,95962.91
2019-02-18T18:09:14.951Z,95960.02
2019-02-18T18:11:44.565Z,95973.35
2019-02-18T18:14:13.932Z,95974.16
2019-02-18T18:16:43.298Z,95966.89
2019-02-18T18:19:12.650Z,95963.67
2019-02-18T18:21:42.157Z,95973.41
2019-02-18T18:24:11.537Z,95975.65
2019-02-18T18:26:40.903Z,95970.02
2019-02-18T18:29:10.283Z,95972.96
2019-02-18T18:31:39.787Z,95973.45
2019-02-18T18:34:09.186Z,95975.41
2019-02-18T18:36:38.591Z,95969.61
2019-02-18T18:39:07.955Z,95973.80
2019-02-18T18:41:37.489Z,95975.25
2019-02-18T18:44:06.947Z,95974.98
2019-02-18T18:46:36.344Z,95974.83
2019-02-18T18:49:05.866Z,95968.27
2019-02-18T18:51:35.991Z,95973.69
2019-02-18T18:54:05.725Z,95971.14
2019-02-18T18:56:35.140Z,95976.52
2019-02-18T18:59:04.540Z,95976.48
2019-02-18T19:01:34.359Z,95977.06
2019-02-18T19:04:03.850Z,95981.48
2019-02-18T19:06:34.894Z,95977.27
2019-02-18T19:09:05.120Z,95977.83
2019-02-18T19:11:34.478Z,95980.68
2019-02-18T19:14:05.033Z,95988.27
2019-02-18T19:16:34.449Z,95989.95
2019-02-18T19:19:04.148Z,95989.45
2019-02-18T19:21:33.552Z,96000.42
2019-02-18T19:24:03.662Z,95993.30
2019-02-18T19:26:32.999Z,95991.30
2019-02-18T19:29:02.361Z,95994.32
2019-02-18T19:31:32.622Z,95991.30
2019-02-18T19:34:01.959Z,95990.22
2019-02-18T19:36:32.965Z,95997.92
2019-02-18T19:39:03.536Z,96001.91
2019-02-18T19:41:33.117Z,95998.16
2019-02-18T19:44:02.478Z,95998.27
2019-02-18T19:46:32.108Z,96001.25
2019-02-18T19:49:01.449Z,95995.48
2019-02-18T19:51:30.795Z,96004.37
2019-02-18T19:54:00.151Z,96002.03
2019-02-18T19:56:29.517Z,96007.47
2019-02-18T19:58:58.925Z,96009.23
2019-02-18T20:01:29.962Z,96008.20
2019-02-18T20:03:59.317Z,96002.11
2019-02-18T20:06:28.717Z,96004.79
2019-02-18T20:08:58.324Z,96001.45
2019-02-18T20:11:31.726Z,96001.34
2019-02-18T20:14:01.501Z,96001.33
2019-02-18T20:16:30.909Z,95997.95
2019-02-18T20:19:00.383Z,95994.84
2019-02-18T20:21:29.729Z,95995.33
2019-02-18T20:23:59.109Z,95999.95
2019-02-18T20:26:28.472Z,96003.36
2019-02-18T20:28:57.973Z,96003.97
2019-02-18T20:31:27.312Z,95997.14
2019-02-18T20:33:56.667Z,96011.12
2019-02-18T20:36:26.052Z,95999.83
2019-02-18T20:38:55.434Z,95834.64
2019-02-18T20:41:24.799Z,96004.45
2019-02-18T20:43:54.278Z,95995.88
2019-02-18T20:46:23.603Z,95999.16
2019-02-18T20:48:52.921Z,95999.50
2019-02-18T20:51:23.721Z,95998.86
2019-02-18T20:53:53.101Z,96001.47
2019-02-18T20:56:22.451Z,95999.42
2019-02-18T20:58:51.788Z,96004.57
2019-02-18T21:01:21.121Z,96001.11
2019-02-18T21:03:50.494Z,96000.97
2019-02-18T21:06:19.933Z,95999.75
2019-02-18T21:08:49.279Z,96005.66
2019-02-18T21:11:19.063Z,96005.94
2019-02-18T21:13:48.423Z,96005.51
2019-02-18T21:16:17.784Z,96015.79
2019-02-18T21:18:47.112Z,96014.55
2019-02-18T21:21:16.458Z,96019.25
2019-02-18T21:23:45.802Z,96020.14
2019-02-18T21:26:15.495Z,96015.62
2019-02-18T21:28:45.122Z,96012.14
2019-02-18T21:31:15.780Z,96019.41
2019-02-18T21:33:45.149Z,96020.06
2019-02-18T21:36:14.511Z,96022.38
2019-02-18T21:38:44.331Z,96010.58
2019-02-18T21:41:16.330Z,96018.79
2019-02-18T21:43:45.677Z,96016.09
2019-02-18T21:46:15.472Z,96020.31
2019-02-18T21:48:44.833Z,96016.67
2019-02-18T21:51:14.186Z,96016.67
2019-02-18T21:53:43.522Z,96020.72
2019-02-18T21:56:12.868Z,96020.72
2019-02-18T21:58:42.260Z,96022.27
2019-02-18T22:01:11.654Z,96012.82
2019-02-18T22:03:41.055Z,96020.84
2019-02-18T22:06:10.394Z,96020.84
2019-02-18T22:08:39.799Z,96028.99
2019-02-18T22:11:09.231Z,96028.99
2019-02-18T22:13:38.736Z,96019.88
2019-02-18T22:16:08.123Z,96027.42
2019-02-18T22:18:37.457Z,96027.42
2019-02-18T22:21:06.807Z,96032.09
2019-02-18T22:23:36.140Z,96028.41
2019-02-18T22:26:05.669Z,96036.63
2019-02-18T22:28:35.227Z,96038.27
2019-02-18T22:31:04.651Z,96038.27
2019-02-18T22:33:34.014Z,96029.02
2019-02-18T22:36:03.895Z,96035.54
2019-02-18T22:38:33.240Z,96035.54
2019-02-18T22:41:02.899Z,96037.42
2019-02-18T22:43:32.307Z,96041.70
2019-02-18T22:46:01.664Z,96041.70
2019-02-18T22:48:31.121Z,96034.45
2019-02-18T22:51:00.464Z,96041.12
2019-02-18T22:53:29.836Z,96040.13
2019-02-18T22:55:59.559Z,96037.73
2019-02-18T22:58:28.942Z,96044.39
2019-02-18T23:01:00.557Z,96040.41
2019-02-18T23:03:29.954Z,96045.48
2019-02-18T23:05:59.324Z,96043.90
2019-02-18T23:08:28.779Z,96042.80
2019-02-18T23:10:58.520Z,96042.58
2019-02-18T23:13:27.943Z,96045.77
2019-02-18T23:15:57.305Z,96040.41
2019-02-18T23:18:26.731Z,96040.97
2019-02-18T23:20:56.094Z,96044.96
2019-02-18T23:23:25.500Z,96040.13
2019-02-18T23:25:54.872Z,96045.22
2019-02-18T23:28:24.182Z,96045.48
2019-02-18T23:30:53.510Z,96039.14
2019-02-18T23:33:22.842Z,96041.79
2019-02-18T23:35:52.148Z,96038.89
2019-02-18T23:38:21.502Z,96033.06
2019-02-18T23:40:50.852Z,96042.40
2019-02-18T23:43:20.197Z,96034.41
2019-02-18T23:45:49.543Z,96037.37
2019-02-18T23:48:18.944Z,96043.76
2019-02-18T23:50:48.324Z,96025.88
2019-02-18T23:53:17.690Z,96028.02
2019-02-18T23:55:47.139Z,96030.71
2019-02-18T23:58:16.485Z,96030.71
